createdAt,value
2018-02-05T00:01:32.034Z,13.20
2018-02-05T00:03:59.429Z,10.90
2018-02-05T00:06:26.830Z,10.40
2018-02-05T00:08:54.264Z,14.53
2018-02-05T00:11:21.709Z,19.27
2018-02-05T00:13:49.112Z,14.20
2018-02-05T00:16:16.534Z,12.73
2018-02-05T00:18:43.931Z,11.70
2018-02-05T00:21:11.313Z,8.67
2018-02-05T00:23:38.741Z,11.50
2018-02-05T00:26:06.126Z,10.23
2018-02-05T00:28:33.523Z,8.93
2018-02-05T00:31:00.915Z,13.67
2018-02-05T00:33:28.320Z,11.50
2018-02-05T00:35:55.780Z,10.80
2018-02-05T00:38:23.225Z,9.23
2018-02-05T00:40:50.610Z,12.60
2018-02-05T00:43:18.007Z,10.97
2018-02-05T00:45:45.411Z,11.83
2018-02-05T00:48:12.808Z,8.40
2018-02-05T00:50:40.186Z,11.10
2018-02-05T00:53:07.593Z,7.60
2018-02-05T00:55:34.981Z,17.47
2018-02-05T00:58:02.462Z,8.63
2018-02-05T01:00:29.933Z,9.03
2018-02-05T01:02:57.315Z,10.60
2018-02-05T01:05:24.710Z,14.07
2018-02-05T01:07:52.096Z,9.57
2018-02-05T01:10:19.543Z,10.00
2018-02-05T01:12:46.935Z,9.47
2018-02-05T01:15:14.318Z,10.50
2018-02-05T01:17:41.698Z,9.30
2018-02-05T01:20:09.090Z,12.20
2018-02-05T01:22:36.519Z,11.27
2018-02-05T01:25:03.974Z,10.07
2018-02-05T01:27:31.368Z,10.70
2018-02-05T01:29:58.765Z,17.83
2018-02-05T01:32:26.152Z,9.83
2018-02-05T01:34:53.552Z,10.70
2018-02-05T01:37:20.946Z,13.20
2018-02-05T01:39:48.419Z,12.53
2018-02-05T01:42:15.806Z,11.07
2018-02-05T01:44:43.323Z,11.30
2018-02-05T01:47:10.706Z,17.97
2018-02-05T01:49:38.110Z,10.97
2018-02-05T01:52:05.511Z,10.57
2018-02-05T01:54:32.919Z,14.70
2018-02-05T01:57:00.315Z,12.93
2018-02-05T01:59:27.694Z,11.03
2018-02-05T02:01:55.207Z,8.68
2018-02-05T02:04:22.658Z,13.10
2018-02-05T02:06:50.062Z,10.23
2018-02-05T02:09:17.486Z,8.87
2018-02-05T02:11:44.878Z,11.40
2018-02-05T02:14:12.270Z,11.57
2018-02-05T02:16:39.740Z,13.23
2018-02-05T02:19:07.126Z,10.10
2018-02-05T02:21:34.536Z,13.17
2018-02-05T02:24:01.918Z,15.33
2018-02-05T02:26:29.318Z,11.73
2018-02-05T02:28:56.707Z,13.77
2018-02-05T02:31:24.110Z,17.40
2018-02-05T02:33:51.506Z,13.80
2018-02-05T02:36:18.910Z,11.03
2018-02-05T02:38:46.351Z,15.23
2018-02-05T02:41:13.751Z,12.93
2018-02-05T02:43:41.247Z,10.53
2018-02-05T02:46:08.643Z,15.77
2018-02-05T02:48:36.031Z,8.10
2018-02-05T02:51:03.418Z,9.13
2018-02-05T02:53:30.815Z,11.67
2018-02-05T02:55:58.241Z,12.40
2018-02-05T02:58:25.670Z,15.20
2018-02-05T03:00:53.058Z,10.53
2018-02-05T03:03:20.498Z,10.00
2018-02-05T03:05:47.877Z,8.13
2018-02-05T03:08:15.276Z,12.33
2018-02-05T03:10:42.751Z,10.30
2018-02-05T03:13:10.145Z,9.83
2018-02-05T03:15:37.559Z,13.07
2018-02-05T03:18:04.963Z,14.40
2018-02-05T03:20:32.342Z,9.90
2018-02-05T03:22:59.824Z,11.13
2018-02-05T03:25:27.214Z,10.70
2018-02-05T03:27:54.634Z,15.77
2018-02-05T03:30:22.027Z,7.93
2018-02-05T03:32:49.432Z,14.20
2018-02-05T03:35:16.818Z,8.80
2018-02-05T03:37:44.194Z,8.93
2018-02-05T03:40:11.605Z,12.40
2018-02-05T03:42:39.004Z,11.37
2018-02-05T03:45:06.383Z,7.80
2018-02-05T03:47:33.880Z,12.23
2018-02-05T03:50:01.307Z,13.23
2018-02-05T03:52:28.751Z,11.17
2018-02-05T03:54:56.154Z,8.90
2018-02-05T03:57:23.586Z,5.90
2018-02-05T03:59:51.046Z,7.83
2018-02-05T04:02:18.893Z,9.20
2018-02-05T04:04:46.374Z,5.70
2018-02-05T04:07:15.549Z,7.53
2018-02-05T04:09:42.946Z,9.60
2018-02-05T04:12:10.378Z,7.23
2018-02-05T04:14:37.774Z,9.07
2018-02-05T04:17:06.001Z,9.13
2018-02-05T04:19:33.382Z,8.20
2018-02-05T04:22:00.775Z,7.03
2018-02-05T04:24:28.236Z,9.80
2018-02-05T04:26:55.610Z,5.50
2018-02-05T04:29:23.022Z,6.80
2018-02-05T04:31:50.434Z,11.50
2018-02-05T04:34:17.831Z,6.13
2018-02-05T04:36:45.227Z,8.10
2018-02-05T04:39:12.610Z,5.60
2018-02-05T04:41:40.059Z,6.93
2018-02-05T04:44:07.445Z,5.10
2018-02-05T04:46:34.866Z,6.13
2018-02-05T04:49:02.262Z,5.27
2018-02-05T04:51:29.664Z,4.80
2018-02-05T04:53:57.357Z,14.60
2018-02-05T04:56:24.747Z,5.33
2018-02-05T04:58:52.129Z,3.50
2018-02-05T05:01:19.602Z,6.33
2018-02-05T05:03:47.068Z,3.20
2018-02-05T05:06:14.471Z,3.30
2018-02-05T05:08:41.869Z,4.50
2018-02-05T05:11:09.255Z,5.60
2018-02-05T05:13:36.655Z,4.73
2018-02-05T05:16:04.052Z,4.80
2018-02-05T05:18:31.506Z,5.13
2018-02-05T05:20:58.894Z,3.90
2018-02-05T05:23:26.300Z,4.83
2018-02-05T05:25:53.674Z,4.40
2018-02-05T05:28:21.080Z,4.53
2018-02-05T05:30:48.462Z,3.80
2018-02-05T05:33:15.855Z,4.17
2018-02-05T05:35:43.250Z,3.63
2018-02-05T05:38:10.650Z,3.30
2018-02-05T05:40:38.048Z,6.63
2018-02-05T05:43:05.544Z,4.60
2018-02-05T05:45:32.926Z,2.57
2018-02-05T05:48:00.321Z,5.10
2018-02-05T05:50:27.707Z,2.67
2018-02-05T05:52:55.097Z,3.40
2018-02-05T05:55:22.485Z,5.87
2018-02-05T05:57:49.887Z,2.23
2018-02-05T06:00:17.275Z,3.30
2018-02-05T06:02:44.680Z,3.53
2018-02-05T06:05:12.073Z,3.70
2018-02-05T06:07:39.509Z,3.20
2018-02-05T06:10:06.850Z,2.83
2018-02-05T06:12:34.303Z,3.57
2018-02-05T06:15:01.717Z,3.30
2018-02-05T06:17:29.114Z,3.10
2018-02-05T06:19:56.501Z,4.60
2018-02-05T06:22:23.927Z,5.93
2018-02-05T06:24:51.309Z,3.43
2018-02-05T06:27:18.700Z,7.90
2018-02-05T06:29:46.092Z,7.57
2018-02-05T06:32:13.479Z,2.90
2018-02-05T06:34:40.899Z,5.07
2018-02-05T06:37:08.295Z,3.47
2018-02-05T06:39:35.686Z,3.27
2018-02-05T06:42:03.168Z,6.13
2018-02-05T06:44:30.561Z,3.97
2018-02-05T06:46:57.971Z,3.53
2018-02-05T06:49:25.359Z,3.17
2018-02-05T06:52:04.676Z,2.90
2018-02-05T06:54:43.807Z,2.67
2018-02-05T06:57:11.194Z,2.83
2018-02-05T06:59:38.589Z,2.53
2018-02-05T07:02:05.979Z,3.03
2018-02-05T07:04:33.414Z,2.83
2018-02-05T07:07:00.793Z,3.33
2018-02-05T07:09:28.195Z,3.17
2018-02-05T07:11:55.582Z,3.83
2018-02-05T07:14:22.973Z,2.73
2018-02-05T07:16:50.354Z,3.37
2018-02-05T07:19:17.738Z,3.57
2018-02-05T07:21:45.135Z,3.67
2018-02-05T07:24:12.518Z,3.33
2018-02-05T07:26:39.918Z,3.60
2018-02-05T07:29:07.307Z,2.87
2018-02-05T07:31:34.706Z,13.90
2018-02-05T07:34:02.091Z,3.73
2018-02-05T07:36:29.484Z,2.80
2018-02-05T07:38:56.977Z,3.70
2018-02-05T07:41:24.362Z,3.80
2018-02-05T07:43:51.787Z,3.27
2018-02-05T07:46:19.177Z,3.90
2018-02-05T07:48:46.560Z,3.80
2018-02-05T07:51:14.054Z,3.10
2018-02-05T07:53:41.439Z,11.90
2018-02-05T07:56:08.870Z,5.67
2018-02-05T07:58:36.259Z,3.20
2018-02-05T08:01:03.659Z,3.67
2018-02-05T08:03:31.042Z,5.43
2018-02-05T08:05:58.426Z,4.17
2018-02-05T08:08:25.819Z,4.30
2018-02-05T08:10:53.294Z,6.80
2018-02-05T08:13:20.709Z,3.10
2018-02-05T08:15:48.094Z,3.80
2018-02-05T08:18:15.482Z,4.43
2018-02-05T08:20:42.867Z,4.93
2018-02-05T08:23:10.270Z,2.80
2018-02-05T08:25:37.718Z,3.30
2018-02-05T08:28:05.182Z,4.47
2018-02-05T08:30:32.639Z,3.17
2018-02-05T08:33:00.026Z,2.20
2018-02-05T08:35:27.415Z,2.40
2018-02-05T08:37:54.812Z,6.30
2018-02-05T08:40:22.200Z,7.23
2018-02-05T08:42:49.590Z,3.23
2018-02-05T08:45:16.965Z,5.50
2018-02-05T08:47:44.346Z,2.67
2018-02-05T08:50:11.773Z,2.10
2018-02-05T08:52:39.171Z,3.00
2018-02-05T08:55:06.554Z,2.90
2018-02-05T08:57:34.042Z,3.87
2018-02-05T09:00:01.433Z,4.10
2018-02-05T09:02:28.853Z,2.93
2018-02-05T09:04:56.251Z,2.30
2018-02-05T09:07:23.661Z,7.93
2018-02-05T09:09:51.119Z,5.63
2018-02-05T09:12:18.499Z,4.90
2018-02-05T09:14:45.895Z,3.80
2018-02-05T09:17:13.398Z,2.93
2018-02-05T09:19:40.833Z,6.67
2018-02-05T09:22:08.213Z,2.53
2018-02-05T09:24:35.590Z,1.93
2018-02-05T09:27:02.987Z,2.83
2018-02-05T09:29:30.373Z,2.63
2018-02-05T09:31:57.767Z,2.03
2018-02-05T09:34:25.163Z,2.50
2018-02-05T09:36:52.552Z,5.90
2018-02-05T09:39:19.940Z,5.87
2018-02-05T09:41:47.341Z,2.50
2018-02-05T09:44:14.788Z,4.40
2018-02-05T09:46:42.178Z,1.93
2018-02-05T09:49:09.587Z,4.47
2018-02-05T09:51:37.002Z,5.07
2018-02-05T09:54:04.406Z,3.27
2018-02-05T09:56:31.797Z,1.97
2018-02-05T09:58:59.192Z,4.80
2018-02-05T10:01:26.582Z,2.53
2018-02-05T10:03:53.965Z,3.73
2018-02-05T10:06:21.361Z,4.67
2018-02-05T10:08:48.761Z,2.87
2018-02-05T10:11:16.192Z,2.70
2018-02-05T10:13:43.543Z,3.37
2018-02-05T10:16:10.944Z,3.97
2018-02-05T10:18:38.328Z,2.50
2018-02-05T10:21:05.807Z,3.00
2018-02-05T10:23:33.270Z,4.07
2018-02-05T10:26:00.675Z,5.30
2018-02-05T10:28:28.067Z,5.27
2018-02-05T10:30:55.466Z,2.50
2018-02-05T10:33:22.854Z,4.10
2018-02-05T10:35:50.242Z,3.57
2018-02-05T10:38:17.642Z,2.43
2018-02-05T10:40:45.030Z,5.13
2018-02-05T10:43:12.512Z,2.93
2018-02-05T10:45:39.965Z,3.10
2018-02-05T10:48:07.361Z,2.23
2018-02-05T10:50:34.745Z,3.37
2018-02-05T10:53:02.138Z,2.50
2018-02-05T10:55:29.585Z,2.57
2018-02-05T10:57:56.982Z,3.13
2018-02-05T11:00:24.366Z,2.90
2018-02-05T11:02:51.766Z,3.93
2018-02-05T11:05:19.146Z,2.63
2018-02-05T11:07:46.547Z,5.80
2018-02-05T11:10:13.928Z,3.17
2018-02-05T11:12:41.323Z,7.10
2018-02-05T11:15:08.738Z,2.50
2018-02-05T11:17:36.134Z,6.70
2018-02-05T11:20:03.522Z,4.20
2018-02-05T11:22:30.908Z,2.77
2018-02-05T11:24:58.305Z,2.93
2018-02-05T11:27:25.739Z,3.00
2018-02-05T11:29:53.126Z,3.50
2018-02-05T11:32:20.506Z,7.30
2018-02-05T11:34:47.902Z,2.43
2018-02-05T11:37:15.290Z,2.50
2018-02-05T11:39:42.673Z,2.80
2018-02-05T11:42:10.054Z,4.20
2018-02-05T11:44:37.454Z,3.43
2018-02-05T11:47:04.938Z,3.23
2018-02-05T11:49:32.334Z,2.07
2018-02-05T11:51:59.718Z,2.27
2018-02-05T11:54:27.210Z,5.13
2018-02-05T11:56:54.663Z,1.90
2018-02-05T11:59:22.064Z,2.07
2018-02-05T12:01:49.477Z,3.23
2018-02-05T12:04:16.933Z,2.37
2018-02-05T12:06:44.379Z,7.13
2018-02-05T12:09:11.761Z,2.40
2018-02-05T12:11:39.166Z,2.50
2018-02-05T12:14:06.582Z,3.27
2018-02-05T12:16:33.978Z,2.63
2018-02-05T12:19:01.368Z,2.50
2018-02-05T12:21:28.758Z,2.40
2018-02-05T12:23:56.144Z,2.30
2018-02-05T12:26:23.543Z,2.60
2018-02-05T12:28:51.210Z,2.20
2018-02-05T12:31:18.606Z,2.67
2018-02-05T12:33:45.992Z,3.27
2018-02-05T12:36:13.543Z,2.33
2018-02-05T12:38:40.919Z,2.20
2018-02-05T12:41:08.315Z,2.27
2018-02-05T12:43:35.714Z,4.10
2018-02-05T12:46:03.105Z,2.83
2018-02-05T12:48:30.491Z,3.63
2018-02-05T12:50:57.896Z,2.30
2018-02-05T12:53:25.272Z,4.07
2018-02-05T12:55:52.654Z,4.20
2018-02-05T12:58:20.043Z,4.40
2018-02-05T13:04:09.934Z,4.20
2018-02-05T13:06:42.202Z,3.47
2018-02-05T13:09:09.671Z,4.43
2018-02-05T13:11:37.058Z,3.60
2018-02-05T13:14:04.493Z,3.97
2018-02-05T13:16:31.833Z,3.87
2018-02-05T13:18:59.218Z,4.17
2018-02-05T13:21:27.410Z,3.13
2018-02-05T13:23:54.804Z,7.60
2018-02-05T13:26:22.202Z,2.87
2018-02-05T13:28:49.591Z,3.87
2018-02-05T13:31:17.087Z,4.70
2018-02-05T13:33:44.490Z,7.43
2018-02-05T13:36:11.891Z,3.90
2018-02-05T13:38:39.278Z,3.43
2018-02-05T13:41:06.667Z,4.57
2018-02-05T13:43:34.053Z,4.53
2018-02-05T13:46:02.255Z,3.60
2018-02-05T13:48:30.558Z,3.37
2018-02-05T13:50:57.967Z,3.70
2018-02-05T13:53:25.441Z,3.53
2018-02-05T13:55:52.866Z,3.60
2018-02-05T13:58:20.262Z,3.53
2018-02-05T14:00:47.647Z,4.07
2018-02-05T14:03:15.038Z,3.20
2018-02-05T14:05:42.426Z,5.03
2018-02-05T14:08:09.817Z,3.53
2018-02-05T14:10:37.198Z,4.13
2018-02-05T14:13:04.587Z,3.70
2018-02-05T14:15:31.974Z,3.37
2018-02-05T14:17:59.368Z,3.40
2018-02-05T14:20:26.758Z,2.80
2018-02-05T14:22:54.183Z,3.40
2018-02-05T14:25:21.568Z,3.93
2018-02-05T14:27:48.945Z,5.13
2018-02-05T14:30:16.442Z,3.87
2018-02-05T14:32:43.834Z,3.90
2018-02-05T14:35:11.238Z,3.00
2018-02-05T14:37:38.623Z,3.87
2018-02-05T14:40:06.014Z,4.13
2018-02-05T14:42:33.410Z,3.50
2018-02-05T14:45:00.790Z,3.63
2018-02-05T14:47:28.174Z,3.53
2018-02-05T14:49:55.596Z,2.63
2018-02-05T14:52:22.982Z,3.10
2018-02-05T14:54:50.383Z,2.87
2018-02-05T14:57:17.770Z,2.90
2018-02-05T14:59:45.150Z,2.77
2018-02-05T15:02:12.554Z,3.40
2018-02-05T15:04:39.977Z,5.87
2018-02-05T15:07:07.363Z,2.43
2018-02-05T15:09:34.752Z,2.90
2018-02-05T15:12:02.154Z,2.47
2018-02-05T15:14:29.550Z,2.40
2018-02-05T15:16:57.595Z,3.20
2018-02-05T15:19:25.058Z,3.00
2018-02-05T15:21:52.514Z,2.90
2018-02-05T15:24:19.898Z,2.60
2018-02-05T15:26:47.303Z,3.60
2018-02-05T15:29:14.778Z,2.30
2018-02-05T15:31:42.234Z,2.83
2018-02-05T15:34:09.616Z,3.50
2018-02-05T15:36:37.020Z,3.30
2018-02-05T15:39:04.394Z,2.80
2018-02-05T15:41:31.838Z,2.80
2018-02-05T15:43:59.238Z,2.40
2018-02-05T15:46:26.665Z,2.20
2018-02-05T15:48:54.066Z,2.97
2018-02-05T15:51:21.448Z,3.70
2018-02-05T15:53:48.834Z,2.70
2018-02-05T15:56:16.222Z,2.50
2018-02-05T15:58:43.626Z,2.33
2018-02-05T16:01:11.027Z,3.03
2018-02-05T16:03:38.415Z,1.80
2018-02-05T16:06:05.807Z,3.93
2018-02-05T16:08:33.227Z,2.47
2018-02-05T16:11:00.622Z,2.50
2018-02-05T16:13:28.072Z,3.23
2018-02-05T16:15:55.446Z,2.67
2018-02-05T16:18:22.888Z,3.90
2018-02-05T16:20:50.270Z,2.33
2018-02-05T16:23:17.664Z,2.97
2018-02-05T16:25:45.046Z,3.27
2018-02-05T16:28:12.502Z,2.40
2018-02-05T16:30:39.886Z,4.53
2018-02-05T16:33:07.266Z,2.60
2018-02-05T16:35:34.649Z,3.63
2018-02-05T16:38:02.039Z,5.43
2018-02-05T16:40:29.427Z,2.77
2018-02-05T16:42:56.814Z,6.27
2018-02-05T16:45:24.199Z,5.83
2018-02-05T16:47:51.584Z,3.60
2018-02-05T16:50:18.974Z,4.40
2018-02-05T16:52:46.456Z,4.57
2018-02-05T16:55:13.855Z,3.30
2018-02-05T16:57:41.233Z,3.10
2018-02-05T17:00:08.630Z,4.70
2018-02-05T17:02:36.013Z,2.70
2018-02-05T17:05:03.426Z,4.60
2018-02-05T17:07:30.810Z,3.43
2018-02-05T17:09:58.235Z,4.63
2018-02-05T17:12:25.694Z,2.70
2018-02-05T17:14:53.140Z,2.63
2018-02-05T17:17:20.519Z,3.03
2018-02-05T17:19:47.910Z,2.80
2018-02-05T17:22:15.302Z,2.97
2018-02-05T17:24:42.680Z,2.80
2018-02-05T17:27:10.067Z,3.00
2018-02-05T17:29:37.441Z,3.40
2018-02-05T17:32:04.839Z,4.00
2018-02-05T17:34:32.225Z,4.00
2018-02-05T17:36:59.910Z,3.27
2018-02-05T17:39:27.380Z,3.10
2018-02-05T17:41:54.826Z,3.63
2018-02-05T17:44:22.216Z,3.30
2018-02-05T17:46:49.638Z,3.23
2018-02-05T17:49:17.030Z,3.37
2018-02-05T17:51:44.446Z,3.67
2018-02-05T17:54:11.831Z,4.17
2018-02-05T17:56:39.249Z,5.63
2018-02-05T17:59:06.705Z,3.73
2018-02-05T18:01:34.162Z,3.60
2018-02-05T18:04:01.566Z,6.10
2018-02-05T18:06:28.958Z,4.27
2018-02-05T18:08:56.347Z,9.60
2018-02-05T18:11:23.868Z,4.60
2018-02-05T18:13:51.382Z,3.37
2018-02-05T18:16:18.806Z,4.80
2018-02-05T18:18:46.198Z,5.27
2018-02-05T18:21:13.629Z,5.00
2018-02-05T18:23:41.001Z,4.93
2018-02-05T18:26:08.386Z,5.80
2018-02-05T18:28:35.769Z,9.50
2018-02-05T18:31:03.158Z,8.73
2018-02-05T18:33:30.546Z,5.40
2018-02-05T18:35:57.930Z,6.50
2018-02-05T18:38:25.406Z,4.57
2018-02-05T18:40:52.842Z,3.90
2018-02-05T18:43:20.322Z,4.00
2018-02-05T18:45:47.698Z,5.73
2018-02-05T18:48:15.095Z,5.93
2018-02-05T18:50:42.478Z,5.83
2018-02-05T18:53:09.934Z,4.83
2018-02-05T18:55:37.327Z,6.93
2018-02-05T18:58:04.726Z,8.07
2018-02-05T19:00:44.134Z,7.83
2018-02-05T19:03:11.582Z,5.43
2018-02-05T19:05:38.962Z,6.03
2018-02-05T19:08:06.453Z,5.80
2018-02-05T19:10:33.847Z,10.47
2018-02-05T19:13:01.239Z,5.50
2018-02-05T19:15:28.715Z,4.53
2018-02-05T19:17:56.107Z,7.07
2018-02-05T19:20:23.531Z,4.53
2018-02-05T19:22:51.003Z,5.80
2018-02-05T19:25:18.370Z,5.27
2018-02-05T19:27:45.751Z,8.73
2018-02-05T19:30:13.142Z,5.20
2018-02-05T19:32:40.570Z,4.57
2018-02-05T19:35:08.034Z,6.50
2018-02-05T19:37:35.458Z,12.30
2018-02-05T19:40:02.870Z,3.43
2018-02-05T19:42:30.257Z,4.40
2018-02-05T19:44:57.635Z,4.33
2018-02-05T19:47:25.022Z,4.23
2018-02-05T19:49:52.494Z,3.70
2018-02-05T19:52:19.878Z,5.10
2018-02-05T19:54:47.268Z,8.67
2018-02-05T19:57:14.659Z,5.30
2018-02-05T19:59:42.034Z,6.20
2018-02-05T20:02:09.428Z,6.70
2018-02-05T20:04:36.922Z,4.50
2018-02-05T20:07:04.313Z,3.90
2018-02-05T20:09:31.702Z,14.10
2018-02-05T20:11:59.877Z,5.30
2018-02-05T20:14:27.359Z,5.77
2018-02-05T20:16:54.750Z,4.03
2018-02-05T20:19:22.125Z,4.97
2018-02-05T20:21:49.524Z,7.60
2018-02-05T20:24:16.996Z,5.80
2018-02-05T20:26:44.367Z,4.03
2018-02-05T20:29:11.750Z,4.30
2018-02-05T20:31:39.149Z,6.17
2018-02-05T20:34:06.542Z,7.67
2018-02-05T20:36:34.070Z,7.00
2018-02-05T20:39:01.450Z,9.20
2018-02-05T20:41:28.838Z,7.50
2018-02-05T20:43:56.234Z,6.33
2018-02-05T20:46:23.614Z,4.30
2018-02-05T20:48:51.019Z,5.40
2018-02-05T20:51:18.400Z,7.03
2018-02-05T20:53:45.778Z,5.70
2018-02-05T20:56:13.173Z,5.47
2018-02-05T20:58:40.550Z,5.20
2018-02-05T21:01:07.942Z,4.90
2018-02-05T21:03:35.341Z,10.87
2018-02-05T21:06:02.818Z,7.30
2018-02-05T21:08:30.215Z,13.43
2018-02-05T21:10:57.635Z,5.90
2018-02-05T21:13:25.030Z,10.07
2018-02-05T21:15:52.407Z,10.37
2018-02-05T21:18:19.807Z,15.73
2018-02-05T21:20:47.195Z,7.57
2018-02-05T21:23:14.585Z,5.00
2018-02-05T21:25:42.004Z,5.40
2018-02-05T21:28:09.410Z,4.03
2018-02-05T21:30:36.798Z,5.50
2018-02-05T21:33:04.197Z,8.13
2018-02-05T21:35:31.578Z,6.70
2018-02-05T21:37:58.975Z,7.00
2018-02-05T21:40:26.358Z,9.00
2018-02-05T21:42:53.753Z,8.50
2018-02-05T21:45:21.141Z,5.13
2018-02-05T21:47:48.530Z,7.43
2018-02-05T21:50:15.920Z,4.97
2018-02-05T21:52:43.354Z,4.23
2018-02-05T21:55:10.749Z,9.30
2018-02-05T21:57:38.189Z,7.03
2018-02-05T22:00:05.635Z,7.47
2018-02-05T22:02:33.030Z,5.60
2018-02-05T22:05:00.472Z,6.77
2018-02-05T22:07:27.903Z,8.27
2018-02-05T22:09:55.294Z,4.97
2018-02-05T22:12:22.690Z,7.53
2018-02-05T22:14:50.094Z,5.37
2018-02-05T22:17:17.481Z,13.60
2018-02-05T22:19:44.862Z,7.73
2018-02-05T22:22:12.376Z,9.20
2018-02-05T22:24:39.766Z,7.57
2018-02-05T22:27:07.178Z,7.80
2018-02-05T22:29:34.662Z,9.03
2018-02-05T22:32:02.043Z,8.63
2018-02-05T22:34:29.466Z,6.53
2018-02-05T22:36:56.930Z,7.67
2018-02-05T22:39:24.326Z,7.17
2018-02-05T22:41:51.707Z,5.50
2018-02-05T22:44:19.103Z,5.90
2018-02-05T22:46:46.495Z,7.53
2018-02-05T22:49:13.881Z,7.90
2018-02-05T22:51:41.299Z,8.80
2018-02-05T22:54:08.667Z,5.97
2018-02-05T22:56:36.058Z,6.53
2018-02-05T22:59:03.446Z,12.27
2018-02-05T23:01:30.891Z,7.60
2018-02-05T23:03:58.279Z,5.97
2018-02-05T23:06:25.667Z,4.87
2018-02-05T23:08:53.072Z,4.50
2018-02-05T23:11:20.489Z,4.50
2018-02-05T23:13:47.882Z,6.33
2018-02-05T23:16:15.302Z,6.20
2018-02-05T23:18:42.694Z,9.67
2018-02-05T23:21:10.119Z,11.47
2018-02-05T23:23:37.510Z,5.13
2018-02-05T23:26:04.891Z,5.17
2018-02-05T23:28:32.382Z,4.97
2018-02-05T23:30:59.762Z,6.50
2018-02-05T23:33:27.153Z,5.00
2018-02-05T23:35:54.547Z,5.20
2018-02-05T23:38:21.998Z,6.37
2018-02-05T23:40:49.382Z,4.67
2018-02-05T23:43:16.777Z,7.73
2018-02-05T23:45:44.169Z,4.83
2018-02-05T23:48:11.558Z,4.80
2018-02-05T23:50:38.950Z,8.87
2018-02-05T23:53:06.337Z,4.93
2018-02-05T23:55:33.738Z,13.40
2018-02-05T23:58:01.147Z,5.17
